sensor_id;sensor_type;location;lat;lon;timestamp;P1;durP1;ratioP1;P2;durP2;ratioP2
20122;SDS011;10222;50.848;4.336;2023-07-24T00:00:05;6.43;;;3.30;;
20122;SDS011;10222;50.848;4.336;2023-07-24T00:02:31;7.10;;;3.17;;
20122;SDS011;10222;50.848;4.336;2023-07-24T00:04:57;6.67;;;3.47;;
20122;SDS011;10222;50.848;4.336;2023-07-24T00:07:23;6.20;;;3.20;;
20122;SDS011;10222;50.848;4.336;2023-07-24T00:09:50;6.30;;;3.50;;
20122;SDS011;10222;50.848;4.336;2023-07-24T00:12:16;10.00;;;3.53;;
20122;SDS011;10222;50.848;4.336;2023-07-24T00:14:42;5.57;;;2.83;;
20122;SDS011;10222;50.848;4.336;2023-07-24T00:17:08;7.87;;;3.47;;
20122;SDS011;10222;50.848;4.336;2023-07-24T00:19:34;5.77;;;3.40;;
20122;SDS011;10222;50.848;4.336;2023-07-24T00:21:59;6.63;;;3.37;;
20122;SDS011;10222;50.848;4.336;2023-07-24T00:24:26;6.53;;;3.37;;
20122;SDS011;10222;50.848;4.336;2023-07-24T00:26:52;8.07;;;3.73;;
20122;SDS011;10222;50.848;4.336;2023-07-24T00:29:18;8.97;;;3.87;;
20122;SDS011;10222;50.848;4.336;2023-07-24T00:31:45;8.50;;;3.27;;
20122;SDS011;10222;50.848;4.336;2023-07-24T00:34:12;5.80;;;3.40;;
20122;SDS011;10222;50.848;4.336;2023-07-24T00:36:38;6.57;;;3.67;;
20122;SDS011;10222;50.848;4.336;2023-07-24T00:39:04;6.03;;;3.47;;
20122;SDS011;10222;50.848;4.336;2023-07-24T00:41:30;8.60;;;3.17;;
20122;SDS011;10222;50.848;4.336;2023-07-24T00:43:56;7.80;;;3.73;;
20122;SDS011;10222;50.848;4.336;2023-07-24T00:46:23;5.50;;;3.70;;
20122;SDS011;10222;50.848;4.336;2023-07-24T00:48:49;6.07;;;3.40;;
20122;SDS011;10222;50.848;4.336;2023-07-24T00:51:15;4.80;;;3.27;;
20122;SDS011;10222;50.848;4.336;2023-07-24T00:53:41;6.53;;;2.97;;
20122;SDS011;10222;50.848;4.336;2023-07-24T00:56:07;6.93;;;3.67;;
20122;SDS011;10222;50.848;4.336;2023-07-24T00:58:34;9.77;;;3.50;;
20122;SDS011;10222;50.848;4.336;2023-07-24T01:01:03;7.80;;;3.17;;
20122;SDS011;10222;50.848;4.336;2023-07-24T01:03:33;7.63;;;3.57;;
20122;SDS011;10222;50.848;4.336;2023-07-24T01:06:01;5.97;;;3.53;;
20122;SDS011;10222;50.848;4.336;2023-07-24T01:08:27;12.67;;;3.37;;
20122;SDS011;10222;50.848;4.336;2023-07-24T01:10:54;7.43;;;3.40;;
20122;SDS011;10222;50.848;4.336;2023-07-24T01:13:22;6.10;;;3.70;;
20122;SDS011;10222;50.848;4.336;2023-07-24T01:15:50;5.40;;;2.60;;
20122;SDS011;10222;50.848;4.336;2023-07-24T01:18:16;7.83;;;3.60;;
20122;SDS011;10222;50.848;4.336;2023-07-24T01:20:43;5.80;;;3.10;;
20122;SDS011;10222;50.848;4.336;2023-07-24T01:23:14;6.90;;;3.00;;
20122;SDS011;10222;50.848;4.336;2023-07-24T01:25:48;5.47;;;2.67;;
20122;SDS011;10222;50.848;4.336;2023-07-24T01:28:15;6.27;;;3.27;;
20122;SDS011;10222;50.848;4.336;2023-07-24T01:30:41;6.73;;;3.30;;
20122;SDS011;10222;50.848;4.336;2023-07-24T01:33:07;8.17;;;3.37;;
20122;SDS011;10222;50.848;4.336;2023-07-24T01:35:33;5.80;;;3.17;;
20122;SDS011;10222;50.848;4.336;2023-07-24T01:37:59;4.67;;;2.93;;
20122;SDS011;10222;50.848;4.336;2023-07-24T01:40:25;5.40;;;3.13;;
20122;SDS011;10222;50.848;4.336;2023-07-24T01:42:51;8.47;;;4.50;;
20122;SDS011;10222;50.848;4.336;2023-07-24T01:45:17;5.97;;;2.97;;
20122;SDS011;10222;50.848;4.336;2023-07-24T01:47:43;7.80;;;2.53;;
20122;SDS011;10222;50.848;4.336;2023-07-24T01:50:09;5.53;;;2.20;;
20122;SDS011;10222;50.848;4.336;2023-07-24T01:52:35;3.00;;;1.57;;
20122;SDS011;10222;50.848;4.336;2023-07-24T01:55:01;3.97;;;1.30;;
20122;SDS011;10222;50.848;4.336;2023-07-24T01:57:27;2.90;;;1.30;;
20122;SDS011;10222;50.848;4.336;2023-07-24T01:59:53;1.53;;;1.00;;
20122;SDS011;10222;50.848;4.336;2023-07-24T02:02:20;3.33;;;1.10;;
20122;SDS011;10222;50.848;4.336;2023-07-24T02:04:46;2.40;;;0.80;;
20122;SDS011;10222;50.848;4.336;2023-07-24T02:07:12;2.03;;;1.00;;
20122;SDS011;10222;50.848;4.336;2023-07-24T02:09:39;1.70;;;1.10;;
20122;SDS011;10222;50.848;4.336;2023-07-24T02:12:06;2.93;;;1.07;;
20122;SDS011;10222;50.848;4.336;2023-07-24T02:14:32;1.00;;;0.90;;
20122;SDS011;10222;50.848;4.336;2023-07-24T02:16:58;2.10;;;1.10;;
20122;SDS011;10222;50.848;4.336;2023-07-24T02:19:25;1.93;;;1.10;;
20122;SDS011;10222;50.848;4.336;2023-07-24T02:21:51;2.00;;;1.27;;
20122;SDS011;10222;50.848;4.336;2023-07-24T02:24:17;1.47;;;1.23;;
20122;SDS011;10222;50.848;4.336;2023-07-24T02:26:43;3.80;;;1.30;;
20122;SDS011;10222;50.848;4.336;2023-07-24T02:29:09;1.77;;;1.40;;
20122;SDS011;10222;50.848;4.336;2023-07-24T02:31:35;2.07;;;1.07;;
20122;SDS011;10222;50.848;4.336;2023-07-24T02:34:01;3.23;;;1.50;;
20122;SDS011;10222;50.848;4.336;2023-07-24T02:36:27;1.40;;;0.93;;
20122;SDS011;10222;50.848;4.336;2023-07-24T02:38:53;2.07;;;1.37;;
20122;SDS011;10222;50.848;4.336;2023-07-24T02:41:18;1.70;;;1.30;;
20122;SDS011;10222;50.848;4.336;2023-07-24T02:43:44;1.67;;;1.20;;
20122;SDS011;10222;50.848;4.336;2023-07-24T02:46:10;1.33;;;0.97;;
20122;SDS011;10222;50.848;4.336;2023-07-24T02:48:36;2.03;;;1.13;;
20122;SDS011;10222;50.848;4.336;2023-07-24T02:51:02;1.80;;;1.10;;
20122;SDS011;10222;50.848;4.336;2023-07-24T02:53:28;1.97;;;1.07;;
20122;SDS011;10222;50.848;4.336;2023-07-24T02:55:54;2.77;;;1.10;;
20122;SDS011;10222;50.848;4.336;2023-07-24T02:58:20;2.30;;;1.23;;
20122;SDS011;10222;50.848;4.336;2023-07-24T03:00:46;1.80;;;1.30;;
20122;SDS011;10222;50.848;4.336;2023-07-24T03:03:12;2.20;;;1.40;;
20122;SDS011;10222;50.848;4.336;2023-07-24T03:05:38;3.73;;;1.47;;
20122;SDS011;10222;50.848;4.336;2023-07-24T03:08:04;1.83;;;1.40;;
20122;SDS011;10222;50.848;4.336;2023-07-24T03:10:30;1.63;;;1.30;;
20122;SDS011;10222;50.848;4.336;2023-07-24T03:12:56;1.60;;;1.20;;
20122;SDS011;10222;50.848;4.336;2023-07-24T03:15:22;1.87;;;1.20;;
20122;SDS011;10222;50.848;4.336;2023-07-24T03:17:48;3.40;;;1.40;;
20122;SDS011;10222;50.848;4.336;2023-07-24T03:20:15;2.00;;;1.30;;
20122;SDS011;10222;50.848;4.336;2023-07-24T03:22:42;2.50;;;1.30;;
20122;SDS011;10222;50.848;4.336;2023-07-24T03:25:08;1.60;;;1.23;;
20122;SDS011;10222;50.848;4.336;2023-07-24T03:27:34;2.57;;;1.40;;
20122;SDS011;10222;50.848;4.336;2023-07-24T03:30:00;1.83;;;1.20;;
20122;SDS011;10222;50.848;4.336;2023-07-24T03:32:26;1.17;;;0.93;;
20122;SDS011;10222;50.848;4.336;2023-07-24T03:34:52;1.63;;;0.97;;
20122;SDS011;10222;50.848;4.336;2023-07-24T03:37:18;1.20;;;0.80;;
20122;SDS011;10222;50.848;4.336;2023-07-24T03:39:44;1.67;;;1.00;;
20122;SDS011;10222;50.848;4.336;2023-07-24T03:42:10;1.20;;;0.90;;
20122;SDS011;10222;50.848;4.336;2023-07-24T03:44:39;1.23;;;0.80;;
20122;SDS011;10222;50.848;4.336;2023-07-24T03:47:06;3.90;;;1.00;;
20122;SDS011;10222;50.848;4.336;2023-07-24T03:49:32;1.53;;;0.90;;
20122;SDS011;10222;50.848;4.336;2023-07-24T03:51:58;1.13;;;0.80;;
20122;SDS011;10222;50.848;4.336;2023-07-24T03:54:24;1.60;;;1.23;;
20122;SDS011;10222;50.848;4.336;2023-07-24T03:56:50;2.63;;;1.10;;
20122;SDS011;10222;50.848;4.336;2023-07-24T03:59:16;1.93;;;1.10;;
20122;SDS011;10222;50.848;4.336;2023-07-24T04:01:42;1.10;;;0.80;;
20122;SDS011;10222;50.848;4.336;2023-07-24T04:04:08;2.97;;;0.97;;
20122;SDS011;10222;50.848;4.336;2023-07-24T04:06:34;2.47;;;1.20;;
20122;SDS011;10222;50.848;4.336;2023-07-24T04:09:00;1.70;;;1.00;;
20122;SDS011;10222;50.848;4.336;2023-07-24T04:11:26;2.60;;;1.20;;
20122;SDS011;10222;50.848;4.336;2023-07-24T04:13:52;2.77;;;1.07;;
20122;SDS011;10222;50.848;4.336;2023-07-24T04:16:18;1.43;;;1.03;;
20122;SDS011;10222;50.848;4.336;2023-07-24T04:18:44;1.67;;;1.07;;
20122;SDS011;10222;50.848;4.336;2023-07-24T04:21:10;1.07;;;0.97;;
20122;SDS011;10222;50.848;4.336;2023-07-24T04:23:36;1.60;;;1.00;;
20122;SDS011;10222;50.848;4.336;2023-07-24T04:26:02;1.87;;;1.10;;
20122;SDS011;10222;50.848;4.336;2023-07-24T04:28:29;2.50;;;1.40;;
20122;SDS011;10222;50.848;4.336;2023-07-24T04:30:55;1.30;;;0.90;;
20122;SDS011;10222;50.848;4.336;2023-07-24T04:33:21;5.50;;;1.33;;
20122;SDS011;10222;50.848;4.336;2023-07-24T04:35:47;1.23;;;0.90;;
20122;SDS011;10222;50.848;4.336;2023-07-24T04:38:14;3.47;;;1.23;;
20122;SDS011;10222;50.848;4.336;2023-07-24T04:40:43;1.60;;;1.00;;
20122;SDS011;10222;50.848;4.336;2023-07-24T04:43:09;1.77;;;1.03;;
20122;SDS011;10222;50.848;4.336;2023-07-24T04:45:36;2.83;;;1.33;;
20122;SDS011;10222;50.848;4.336;2023-07-24T04:48:02;5.30;;;1.10;;
20122;SDS011;10222;50.848;4.336;2023-07-24T04:50:28;2.23;;;1.37;;
20122;SDS011;10222;50.848;4.336;2023-07-24T04:52:54;0.97;;;0.80;;
20122;SDS011;10222;50.848;4.336;2023-07-24T04:55:21;1.50;;;1.10;;
20122;SDS011;10222;50.848;4.336;2023-07-24T04:57:47;3.37;;;1.40;;
20122;SDS011;10222;50.848;4.336;2023-07-24T05:00:13;1.53;;;1.00;;
20122;SDS011;10222;50.848;4.336;2023-07-24T05:02:39;3.50;;;0.70;;
20122;SDS011;10222;50.848;4.336;2023-07-24T05:05:06;1.73;;;1.03;;
20122;SDS011;10222;50.848;4.336;2023-07-24T05:07:32;1.73;;;1.00;;
20122;SDS011;10222;50.848;4.336;2023-07-24T05:09:58;2.00;;;1.00;;
20122;SDS011;10222;50.848;4.336;2023-07-24T05:12:25;2.30;;;1.00;;
20122;SDS011;10222;50.848;4.336;2023-07-24T05:14:51;2.20;;;1.10;;
20122;SDS011;10222;50.848;4.336;2023-07-24T05:17:17;2.17;;;1.20;;
20122;SDS011;10222;50.848;4.336;2023-07-24T05:19:43;1.30;;;1.03;;
20122;SDS011;10222;50.848;4.336;2023-07-24T05:22:09;1.40;;;1.10;;
20122;SDS011;10222;50.848;4.336;2023-07-24T05:24:36;1.80;;;1.13;;
20122;SDS011;10222;50.848;4.336;2023-07-24T05:27:02;1.27;;;0.93;;
20122;SDS011;10222;50.848;4.336;2023-07-24T05:29:28;2.00;;;1.30;;
20122;SDS011;10222;50.848;4.336;2023-07-24T05:31:54;2.40;;;1.50;;
20122;SDS011;10222;50.848;4.336;2023-07-24T05:34:20;2.10;;;1.37;;
20122;SDS011;10222;50.848;4.336;2023-07-24T05:36:46;1.43;;;1.00;;
20122;SDS011;10222;50.848;4.336;2023-07-24T05:39:12;1.87;;;1.20;;
20122;SDS011;10222;50.848;4.336;2023-07-24T05:41:38;3.47;;;1.30;;
20122;SDS011;10222;50.848;4.336;2023-07-24T05:44:04;1.33;;;1.03;;
20122;SDS011;10222;50.848;4.336;2023-07-24T05:46:31;2.03;;;1.03;;
20122;SDS011;10222;50.848;4.336;2023-07-24T05:48:57;2.53;;;1.20;;
20122;SDS011;10222;50.848;4.336;2023-07-24T05:51:25;2.47;;;1.43;;
20122;SDS011;10222;50.848;4.336;2023-07-24T05:53:52;3.23;;;1.50;;
20122;SDS011;10222;50.848;4.336;2023-07-24T05:56:18;2.07;;;1.33;;
20122;SDS011;10222;50.848;4.336;2023-07-24T05:58:44;2.80;;;1.50;;
20122;SDS011;10222;50.848;4.336;2023-07-24T06:01:10;2.40;;;1.30;;
20122;SDS011;10222;50.848;4.336;2023-07-24T06:03:36;3.00;;;1.70;;
20122;SDS011;10222;50.848;4.336;2023-07-24T06:06:05;1.63;;;1.30;;
20122;SDS011;10222;50.848;4.336;2023-07-24T06:08:30;2.73;;;1.50;;
20122;SDS011;10222;50.848;4.336;2023-07-24T06:10:56;2.13;;;1.43;;
20122;SDS011;10222;50.848;4.336;2023-07-24T06:13:22;1.90;;;1.30;;
20122;SDS011;10222;50.848;4.336;2023-07-24T06:15:49;3.40;;;1.67;;
20122;SDS011;10222;50.848;4.336;2023-07-24T06:18:15;3.57;;;1.60;;
20122;SDS011;10222;50.848;4.336;2023-07-24T06:20:41;2.23;;;1.37;;
20122;SDS011;10222;50.848;4.336;2023-07-24T06:23:07;2.17;;;1.50;;
20122;SDS011;10222;50.848;4.336;2023-07-24T06:25:33;3.10;;;1.83;;
20122;SDS011;10222;50.848;4.336;2023-07-24T06:28:00;2.97;;;1.87;;
20122;SDS011;10222;50.848;4.336;2023-07-24T06:30:26;5.77;;;2.00;;
20122;SDS011;10222;50.848;4.336;2023-07-24T06:32:52;3.80;;;1.70;;
20122;SDS011;10222;50.848;4.336;2023-07-24T06:35:18;2.07;;;1.30;;
20122;SDS011;10222;50.848;4.336;2023-07-24T06:37:44;2.97;;;1.93;;
20122;SDS011;10222;50.848;4.336;2023-07-24T06:40:10;3.27;;;1.43;;
20122;SDS011;10222;50.848;4.336;2023-07-24T06:42:36;2.33;;;1.40;;
20122;SDS011;10222;50.848;4.336;2023-07-24T06:45:02;2.63;;;1.27;;
20122;SDS011;10222;50.848;4.336;2023-07-24T06:47:29;2.40;;;1.43;;
20122;SDS011;10222;50.848;4.336;2023-07-24T06:49:54;3.87;;;1.37;;
20122;SDS011;10222;50.848;4.336;2023-07-24T06:52:21;5.47;;;1.77;;
20122;SDS011;10222;50.848;4.336;2023-07-24T06:54:46;3.43;;;1.90;;
20122;SDS011;10222;50.848;4.336;2023-07-24T06:57:12;2.60;;;1.67;;
20122;SDS011;10222;50.848;4.336;2023-07-24T06:59:38;2.37;;;1.40;;
20122;SDS011;10222;50.848;4.336;2023-07-24T07:02:05;2.07;;;1.43;;
20122;SDS011;10222;50.848;4.336;2023-07-24T07:04:31;2.07;;;1.23;;
20122;SDS011;10222;50.848;4.336;2023-07-24T07:06:57;2.80;;;1.50;;
20122;SDS011;10222;50.848;4.336;2023-07-24T07:09:23;3.60;;;1.90;;
20122;SDS011;10222;50.848;4.336;2023-07-24T07:11:49;2.73;;;1.63;;
20122;SDS011;10222;50.848;4.336;2023-07-24T07:14:15;3.03;;;1.70;;
20122;SDS011;10222;50.848;4.336;2023-07-24T07:16:41;2.57;;;1.60;;
20122;SDS011;10222;50.848;4.336;2023-07-24T07:19:06;3.03;;;1.87;;
20122;SDS011;10222;50.848;4.336;2023-07-24T07:21:34;3.20;;;1.60;;
20122;SDS011;10222;50.848;4.336;2023-07-24T07:24:01;2.87;;;1.70;;
20122;SDS011;10222;50.848;4.336;2023-07-24T07:26:27;3.07;;;1.40;;
20122;SDS011;10222;50.848;4.336;2023-07-24T07:28:54;2.37;;;1.50;;
20122;SDS011;10222;50.848;4.336;2023-07-24T07:31:20;2.60;;;1.43;;
20122;SDS011;10222;50.848;4.336;2023-07-24T07:33:46;1.53;;;1.10;;
20122;SDS011;10222;50.848;4.336;2023-07-24T07:36:13;2.57;;;1.47;;
20122;SDS011;10222;50.848;4.336;2023-07-24T07:38:39;1.53;;;1.17;;
20122;SDS011;10222;50.848;4.336;2023-07-24T07:41:05;1.97;;;1.13;;
20122;SDS011;10222;50.848;4.336;2023-07-24T07:43:31;1.77;;;1.30;;
20122;SDS011;10222;50.848;4.336;2023-07-24T07:45:58;2.00;;;1.40;;
20122;SDS011;10222;50.848;4.336;2023-07-24T07:48:24;2.80;;;1.23;;
20122;SDS011;10222;50.848;4.336;2023-07-24T07:50:53;2.13;;;1.40;;
20122;SDS011;10222;50.848;4.336;2023-07-24T07:53:20;3.80;;;1.27;;
20122;SDS011;10222;50.848;4.336;2023-07-24T07:55:46;2.87;;;1.40;;
20122;SDS011;10222;50.848;4.336;2023-07-24T07:58:12;6.17;;;1.10;;
20122;SDS011;10222;50.848;4.336;2023-07-24T08:00:38;1.67;;;1.20;;
20122;SDS011;10222;50.848;4.336;2023-07-24T08:03:04;2.27;;;1.30;;
20122;SDS011;10222;50.848;4.336;2023-07-24T08:05:30;2.10;;;1.40;;
20122;SDS011;10222;50.848;4.336;2023-07-24T08:07:57;2.33;;;1.40;;
20122;SDS011;10222;50.848;4.336;2023-07-24T08:10:23;3.93;;;1.60;;
20122;SDS011;10222;50.848;4.336;2023-07-24T08:12:49;2.23;;;1.23;;
20122;SDS011;10222;50.848;4.336;2023-07-24T08:15:15;2.67;;;1.50;;
20122;SDS011;10222;50.848;4.336;2023-07-24T08:17:41;4.07;;;1.83;;
20122;SDS011;10222;50.848;4.336;2023-07-24T08:20:07;2.50;;;1.70;;
20122;SDS011;10222;50.848;4.336;2023-07-24T08:22:33;2.77;;;1.60;;
20122;SDS011;10222;50.848;4.336;2023-07-24T08:24:59;3.17;;;1.60;;
20122;SDS011;10222;50.848;4.336;2023-07-24T08:27:25;3.17;;;1.67;;
20122;SDS011;10222;50.848;4.336;2023-07-24T08:29:51;2.50;;;1.37;;
20122;SDS011;10222;50.848;4.336;2023-07-24T08:32:21;3.23;;;1.57;;
20122;SDS011;10222;50.848;4.336;2023-07-24T08:34:47;3.43;;;1.70;;
20122;SDS011;10222;50.848;4.336;2023-07-24T08:37:13;1.83;;;1.40;;
20122;SDS011;10222;50.848;4.336;2023-07-24T08:39:39;3.03;;;1.57;;
20122;SDS011;10222;50.848;4.336;2023-07-24T08:42:09;2.90;;;1.70;;
20122;SDS011;10222;50.848;4.336;2023-07-24T08:44:36;3.63;;;1.63;;
20122;SDS011;10222;50.848;4.336;2023-07-24T08:47:02;3.60;;;1.73;;
20122;SDS011;10222;50.848;4.336;2023-07-24T08:49:29;2.13;;;1.50;;
20122;SDS011;10222;50.848;4.336;2023-07-24T08:51:56;4.90;;;1.97;;
20122;SDS011;10222;50.848;4.336;2023-07-24T08:54:22;2.80;;;1.70;;
20122;SDS011;10222;50.848;4.336;2023-07-24T08:56:50;4.50;;;1.57;;
20122;SDS011;10222;50.848;4.336;2023-07-24T08:59:17;5.17;;;1.63;;
20122;SDS011;10222;50.848;4.336;2023-07-24T09:01:43;2.80;;;1.63;;
20122;SDS011;10222;50.848;4.336;2023-07-24T09:04:10;3.53;;;2.37;;
20122;SDS011;10222;50.848;4.336;2023-07-24T09:06:36;2.53;;;1.47;;
20122;SDS011;10222;50.848;4.336;2023-07-24T09:09:11;4.30;;;2.10;;
20122;SDS011;10222;50.848;4.336;2023-07-24T09:11:45;4.83;;;1.93;;
20122;SDS011;10222;50.848;4.336;2023-07-24T09:14:19;2.63;;;1.80;;
20122;SDS011;10222;50.848;4.336;2023-07-24T09:16:45;2.73;;;1.70;;
20122;SDS011;10222;50.848;4.336;2023-07-24T09:19:17;4.23;;;1.93;;
20122;SDS011;10222;50.848;4.336;2023-07-24T09:21:43;2.90;;;1.60;;
20122;SDS011;10222;50.848;4.336;2023-07-24T09:24:13;3.80;;;1.70;;
20122;SDS011;10222;50.848;4.336;2023-07-24T09:26:48;3.87;;;1.50;;
20122;SDS011;10222;50.848;4.336;2023-07-24T09:29:16;3.17;;;1.87;;
20122;SDS011;10222;50.848;4.336;2023-07-24T09:31:42;4.27;;;1.53;;
20122;SDS011;10222;50.848;4.336;2023-07-24T09:34:18;2.60;;;1.47;;
20122;SDS011;10222;50.848;4.336;2023-07-24T09:36:44;2.13;;;1.47;;
20122;SDS011;10222;50.848;4.336;2023-07-24T09:39:11;2.97;;;1.70;;
20122;SDS011;10222;50.848;4.336;2023-07-24T09:41:38;3.10;;;1.90;;
20122;SDS011;10222;50.848;4.336;2023-07-24T09:44:04;2.43;;;1.77;;
20122;SDS011;10222;50.848;4.336;2023-07-24T09:46:30;3.07;;;1.70;;
20122;SDS011;10222;50.848;4.336;2023-07-24T09:48:57;3.50;;;1.73;;
20122;SDS011;10222;50.848;4.336;2023-07-24T09:51:23;3.63;;;2.10;;
20122;SDS011;10222;50.848;4.336;2023-07-24T09:56:15;6.53;;;2.13;;
20122;SDS011;10222;50.848;4.336;2023-07-24T09:58:44;2.90;;;1.70;;
20122;SDS011;10222;50.848;4.336;2023-07-24T10:01:10;3.33;;;2.10;;
20122;SDS011;10222;50.848;4.336;2023-07-24T10:03:43;3.63;;;1.50;;
20122;SDS011;10222;50.848;4.336;2023-07-24T10:06:10;3.30;;;1.50;;
20122;SDS011;10222;50.848;4.336;2023-07-24T10:08:36;2.57;;;1.40;;
20122;SDS011;10222;50.848;4.336;2023-07-24T10:11:02;2.90;;;1.80;;
20122;SDS011;10222;50.848;4.336;2023-07-24T10:13:30;2.90;;;1.40;;
20122;SDS011;10222;50.848;4.336;2023-07-24T10:15:59;3.10;;;1.70;;
20122;SDS011;10222;50.848;4.336;2023-07-24T10:18:28;2.77;;;1.70;;
20122;SDS011;10222;50.848;4.336;2023-07-24T10:21:04;9.13;;;2.83;;
20122;SDS011;10222;50.848;4.336;2023-07-24T10:23:33;3.20;;;1.93;;
20122;SDS011;10222;50.848;4.336;2023-07-24T10:26:03;2.93;;;1.70;;
20122;SDS011;10222;50.848;4.336;2023-07-24T10:30:58;3.73;;;1.67;;
20122;SDS011;10222;50.848;4.336;2023-07-24T10:33:24;3.60;;;2.00;;
20122;SDS011;10222;50.848;4.336;2023-07-24T10:35:53;3.13;;;1.53;;
20122;SDS011;10222;50.848;4.336;2023-07-24T10:38:19;3.08;;;1.77;;
20122;SDS011;10222;50.848;4.336;2023-07-24T10:40:46;2.67;;;1.60;;
20122;SDS011;10222;50.848;4.336;2023-07-24T10:43:18;2.97;;;1.50;;
20122;SDS011;10222;50.848;4.336;2023-07-24T10:48:12;2.58;;;1.50;;
20122;SDS011;10222;50.848;4.336;2023-07-24T10:50:39;3.08;;;1.70;;
20122;SDS011;10222;50.848;4.336;2023-07-24T10:53:05;4.30;;;1.93;;
20122;SDS011;10222;50.848;4.336;2023-07-24T10:55:31;2.15;;;1.73;;
20122;SDS011;10222;50.848;4.336;2023-07-24T10:57:57;4.53;;;1.90;;
20122;SDS011;10222;50.848;4.336;2023-07-24T11:00:26;3.67;;;1.73;;
20122;SDS011;10222;50.848;4.336;2023-07-24T11:02:52;2.55;;;1.52;;
20122;SDS011;10222;50.848;4.336;2023-07-24T11:05:20;2.67;;;1.80;;
20122;SDS011;10222;50.848;4.336;2023-07-24T11:07:47;3.07;;;1.80;;
20122;SDS011;10222;50.848;4.336;2023-07-24T11:10:14;2.60;;;1.60;;
20122;SDS011;10222;50.848;4.336;2023-07-24T11:12:40;3.97;;;1.97;;
20122;SDS011;10222;50.848;4.336;2023-07-24T11:15:06;6.30;;;2.40;;
20122;SDS011;10222;50.848;4.336;2023-07-24T11:17:33;4.23;;;1.90;;
20122;SDS011;10222;50.848;4.336;2023-07-24T11:20:15;3.10;;;2.00;;
20122;SDS011;10222;50.848;4.336;2023-07-24T11:22:42;3.53;;;2.10;;
20122;SDS011;10222;50.848;4.336;2023-07-24T11:25:12;7.30;;;2.20;;
20122;SDS011;10222;50.848;4.336;2023-07-24T11:27:39;3.17;;;2.30;;
20122;SDS011;10222;50.848;4.336;2023-07-24T11:30:06;3.00;;;2.07;;
20122;SDS011;10222;50.848;4.336;2023-07-24T11:32:33;3.80;;;2.50;;
20122;SDS011;10222;50.848;4.336;2023-07-24T11:34:59;4.17;;;2.10;;
20122;SDS011;10222;50.848;4.336;2023-07-24T11:37:25;5.38;;;3.03;;
20122;SDS011;10222;50.848;4.336;2023-07-24T11:39:55;4.93;;;2.78;;
20122;SDS011;10222;50.848;4.336;2023-07-24T11:42:23;6.03;;;2.60;;
20122;SDS011;10222;50.848;4.336;2023-07-24T11:44:49;5.53;;;2.70;;
20122;SDS011;10222;50.848;4.336;2023-07-24T11:47:15;3.17;;;2.17;;
20122;SDS011;10222;50.848;4.336;2023-07-24T11:49:44;4.67;;;2.23;;
20122;SDS011;10222;50.848;4.336;2023-07-24T11:52:13;2.57;;;2.17;;
20122;SDS011;10222;50.848;4.336;2023-07-24T11:54:39;3.80;;;2.33;;
20122;SDS011;10222;50.848;4.336;2023-07-24T11:57:15;4.03;;;2.10;;
20122;SDS011;10222;50.848;4.336;2023-07-24T11:59:44;4.07;;;1.70;;
20122;SDS011;10222;50.848;4.336;2023-07-24T12:02:11;4.32;;;2.00;;
20122;SDS011;10222;50.848;4.336;2023-07-24T12:04:37;4.35;;;1.60;;
20122;SDS011;10222;50.848;4.336;2023-07-24T12:07:07;3.97;;;1.90;;
20122;SDS011;10222;50.848;4.336;2023-07-24T12:09:34;3.23;;;2.10;;
20122;SDS011;10222;50.848;4.336;2023-07-24T12:12:00;2.93;;;1.87;;
20122;SDS011;10222;50.848;4.336;2023-07-24T12:14:29;4.82;;;1.83;;
20122;SDS011;10222;50.848;4.336;2023-07-24T12:17:02;2.63;;;1.70;;
20122;SDS011;10222;50.848;4.336;2023-07-24T12:19:28;5.07;;;2.22;;
20122;SDS011;10222;50.848;4.336;2023-07-24T12:21:54;3.53;;;1.85;;
20122;SDS011;10222;50.848;4.336;2023-07-24T12:24:20;5.47;;;1.83;;
20122;SDS011;10222;50.848;4.336;2023-07-24T12:26:47;6.15;;;1.73;;
20122;SDS011;10222;50.848;4.336;2023-07-24T12:29:13;2.23;;;1.57;;
20122;SDS011;10222;50.848;4.336;2023-07-24T12:31:39;3.10;;;1.80;;
20122;SDS011;10222;50.848;4.336;2023-07-24T12:34:06;3.67;;;1.75;;
20122;SDS011;10222;50.848;4.336;2023-07-24T12:36:32;2.60;;;1.60;;
20122;SDS011;10222;50.848;4.336;2023-07-24T12:38:58;2.20;;;1.80;;
20122;SDS011;10222;50.848;4.336;2023-07-24T12:41:24;3.20;;;1.87;;
20122;SDS011;10222;50.848;4.336;2023-07-24T12:43:50;3.40;;;1.80;;
20122;SDS011;10222;50.848;4.336;2023-07-24T12:46:16;4.47;;;1.83;;
20122;SDS011;10222;50.848;4.336;2023-07-24T12:48:42;5.65;;;2.33;;
20122;SDS011;10222;50.848;4.336;2023-07-24T12:51:08;3.17;;;2.10;;
20122;SDS011;10222;50.848;4.336;2023-07-24T12:53:34;4.40;;;1.90;;
20122;SDS011;10222;50.848;4.336;2023-07-24T12:56:00;3.15;;;1.60;;
20122;SDS011;10222;50.848;4.336;2023-07-24T12:58:26;3.07;;;1.90;;
20122;SDS011;10222;50.848;4.336;2023-07-24T13:00:52;4.47;;;2.03;;
20122;SDS011;10222;50.848;4.336;2023-07-24T13:03:18;3.87;;;1.87;;
20122;SDS011;10222;50.848;4.336;2023-07-24T13:05:46;3.20;;;2.05;;
20122;SDS011;10222;50.848;4.336;2023-07-24T13:08:12;2.13;;;1.70;;
20122;SDS011;10222;50.848;4.336;2023-07-24T13:10:38;2.67;;;1.80;;
20122;SDS011;10222;50.848;4.336;2023-07-24T13:13:04;3.80;;;1.97;;
20122;SDS011;10222;50.848;4.336;2023-07-24T13:15:30;4.20;;;1.98;;
20122;SDS011;10222;50.848;4.336;2023-07-24T13:17:58;4.67;;;2.57;;
20122;SDS011;10222;50.848;4.336;2023-07-24T13:20:24;5.07;;;2.00;;
20122;SDS011;10222;50.848;4.336;2023-07-24T13:22:50;4.32;;;2.08;;
20122;SDS011;10222;50.848;4.336;2023-07-24T13:25:16;3.40;;;2.03;;
20122;SDS011;10222;50.848;4.336;2023-07-24T13:27:42;4.90;;;1.73;;
20122;SDS011;10222;50.848;4.336;2023-07-24T13:30:08;4.05;;;1.92;;
20122;SDS011;10222;50.848;4.336;2023-07-24T13:32:34;3.70;;;2.43;;
20122;SDS011;10222;50.848;4.336;2023-07-24T13:35:00;4.40;;;2.05;;
20122;SDS011;10222;50.848;4.336;2023-07-24T13:37:26;3.43;;;2.13;;
20122;SDS011;10222;50.848;4.336;2023-07-24T13:39:52;4.65;;;2.40;;
20122;SDS011;10222;50.848;4.336;2023-07-24T13:42:18;4.07;;;1.90;;
20122;SDS011;10222;50.848;4.336;2023-07-24T13:44:44;6.10;;;1.60;;
20122;SDS011;10222;50.848;4.336;2023-07-24T13:47:10;3.75;;;1.90;;
20122;SDS011;10222;50.848;4.336;2023-07-24T13:49:38;3.88;;;2.28;;
20122;SDS011;10222;50.848;4.336;2023-07-24T13:52:06;3.10;;;1.92;;
20122;SDS011;10222;50.848;4.336;2023-07-24T13:54:32;2.72;;;1.83;;
20122;SDS011;10222;50.848;4.336;2023-07-24T13:56:58;5.78;;;1.60;;
20122;SDS011;10222;50.848;4.336;2023-07-24T13:59:24;3.55;;;1.90;;
20122;SDS011;10222;50.848;4.336;2023-07-24T14:01:50;5.47;;;2.00;;
20122;SDS011;10222;50.848;4.336;2023-07-24T14:04:16;3.53;;;1.60;;
20122;SDS011;10222;50.848;4.336;2023-07-24T14:06:42;3.72;;;1.88;;
20122;SDS011;10222;50.848;4.336;2023-07-24T14:09:08;2.67;;;1.92;;
20122;SDS011;10222;50.848;4.336;2023-07-24T14:11:34;2.00;;;1.30;;
20122;SDS011;10222;50.848;4.336;2023-07-24T14:14:00;5.50;;;1.83;;
20122;SDS011;10222;50.848;4.336;2023-07-24T14:16:26;4.10;;;1.80;;
20122;SDS011;10222;50.848;4.336;2023-07-24T14:18:52;5.55;;;1.58;;
20122;SDS011;10222;50.848;4.336;2023-07-24T14:21:19;1.73;;;1.55;;
20122;SDS011;10222;50.848;4.336;2023-07-24T14:23:45;2.42;;;1.55;;
20122;SDS011;10222;50.848;4.336;2023-07-24T14:26:11;4.17;;;1.33;;
20122;SDS011;10222;50.848;4.336;2023-07-24T14:28:37;2.97;;;1.60;;
20122;SDS011;10222;50.848;4.336;2023-07-24T14:31:04;2.63;;;1.58;;
20122;SDS011;10222;50.848;4.336;2023-07-24T14:33:30;4.22;;;1.73;;
20122;SDS011;10222;50.848;4.336;2023-07-24T14:35:57;1.98;;;1.60;;
20122;SDS011;10222;50.848;4.336;2023-07-24T14:38:23;3.40;;;1.40;;
20122;SDS011;10222;50.848;4.336;2023-07-24T14:40:49;2.83;;;1.40;;
20122;SDS011;10222;50.848;4.336;2023-07-24T14:43:15;2.00;;;1.33;;
20122;SDS011;10222;50.848;4.336;2023-07-24T14:45:41;2.63;;;1.45;;
20122;SDS011;10222;50.848;4.336;2023-07-24T14:48:07;4.15;;;1.60;;
20122;SDS011;10222;50.848;4.336;2023-07-24T14:50:38;3.83;;;1.65;;